Terminal Aerodrome Forecast
Issued by NWS

Home | Current Version | Previous Version | Text Only | Print | Product List | Glossary On
Versions: 1 2 3 4 5 6 7 8 9 10 11 12 13 14 15 16 17 18 19 20 21 22 23 24 25
150
FTPA31 PHFO 232150 AAA
TAFHTO
TAF AMD
PHTO 232150Z 2322/2418 10009KT 3SM -SHRA BR SCT015 OVC030
      TEMPO 2321/2323 VRB09KT 1 1/2SM +TSRA SCT005 OVC020CB
     FM240800 VRB06KT P6SM -SHRA SCT015 BKN030 OVC045=

USA.gov is the U.S. government's official web portal to all federal, state and local government web resources and services.